<?xml version="1.0" encoding="UTF-8" standalone="no" ?>
<gpx xmlns="http://www.topografix.com/GPX/1/1" xmlns:xsi="http://www.w3.org/2001/XMLSchema-instance" xsi:schemaLocation="http://www.topografix.com/GPX/1/1 http://www.topografix.com/GPX/1/1/gpx.xsd" version="1.1" creator="VisuGPX - https://www.visugpx.com">
  <metadata>
    <name>descentes sur douelle</name>
    <desc><![CDATA[descentes sur douelle]]></desc>
  </metadata>
  <trk>
    <name><![CDATA[rataboul]]></name>
    <trkseg>
      <trkpt lat="44.45052" lon="1.31669">
        <ele>281.721863</ele>
        <time>2012-09-02T10:14:32Z</time>
      </trkpt>
      <trkpt lat="44.45062" lon="1.31613">
        <ele>283.747253</ele>
        <time>2012-09-02T10:14:46Z</time>
      </trkpt>
      <trkpt lat="44.45069" lon="1.31554">
        <ele>283.78186</ele>
        <time>2012-09-02T10:14:58Z</time>
      </trkpt>
      <trkpt lat="44.45069" lon="1.31518">
        <ele>283.790344</ele>
        <time>2012-09-02T10:15:04Z</time>
      </trkpt>
      <trkpt lat="44.45066" lon="1.31474">
        <ele>283.698822</ele>
        <time>2012-09-02T10:15:12Z</time>
      </trkpt>
      <trkpt lat="44.45074" lon="1.31392">
        <ele>284.964386</ele>
        <time>2012-09-02T10:15:26Z</time>
      </trkpt>
      <trkpt lat="44.45084" lon="1.31319">
        <ele>284.473755</ele>
        <time>2012-09-02T10:15:39Z</time>
      </trkpt>
      <trkpt lat="44.45087" lon="1.31295">
        <ele>284.148743</ele>
        <time>2012-09-02T10:15:43Z</time>
      </trkpt>
      <trkpt lat="44.45095" lon="1.31267">
        <ele>284.358765</ele>
        <time>2012-09-02T10:15:48Z</time>
      </trkpt>
      <trkpt lat="44.45101" lon="1.31251">
        <ele>284.734985</ele>
        <time>2012-09-02T10:15:51Z</time>
      </trkpt>
      <trkpt lat="44.45111" lon="1.31221">
        <ele>284.368744</ele>
        <time>2012-09-02T10:15:56Z</time>
      </trkpt>
      <trkpt lat="44.45144" lon="1.31157">
        <ele>282.223511</ele>
        <time>2012-09-02T10:16:08Z</time>
      </trkpt>
      <trkpt lat="44.4515" lon="1.31143">
        <ele>281.338745</ele>
        <time>2012-09-02T10:16:11Z</time>
      </trkpt>
      <trkpt lat="44.45166" lon="1.31116">
        <ele>278.818756</ele>
        <time>2012-09-02T10:16:16Z</time>
      </trkpt>
      <trkpt lat="44.45174" lon="1.31088">
        <ele>274.646301</ele>
        <time>2012-09-02T10:16:21Z</time>
      </trkpt>
      <trkpt lat="44.45172" lon="1.31069">
        <ele>271.867706</ele>
        <time>2012-09-02T10:16:24Z</time>
      </trkpt>
      <trkpt lat="44.45171" lon="1.31057">
        <ele>269.950989</ele>
        <time>2012-09-02T10:16:26Z</time>
      </trkpt>
      <trkpt lat="44.45168" lon="1.31026">
        <ele>265.616516</ele>
        <time>2012-09-02T10:16:32Z</time>
      </trkpt>
      <trkpt lat="44.45166" lon="1.31003">
        <ele>262.355103</ele>
        <time>2012-09-02T10:16:43Z</time>
      </trkpt>
      <trkpt lat="44.45166" lon="1.31003">
        <ele>262.355103</ele>
        <time>2012-09-02T10:16:49Z</time>
      </trkpt>
      <trkpt lat="44.45171" lon="1.30999">
        <ele>262.110474</ele>
        <time>2012-09-02T10:16:54Z</time>
      </trkpt>
      <trkpt lat="44.45179" lon="1.30999">
        <ele>262.522552</ele>
        <time>2012-09-02T10:16:56Z</time>
      </trkpt>
      <trkpt lat="44.45178" lon="1.30965">
        <ele>259.280792</ele>
        <time>2012-09-02T10:17:04Z</time>
      </trkpt>
      <trkpt lat="44.45164" lon="1.30941">
        <ele>254.766739</ele>
        <time>2012-09-02T10:17:10Z</time>
      </trkpt>
      <trkpt lat="44.45164" lon="1.30934">
        <ele>254.016998</ele>
        <time>2012-09-02T10:17:13Z</time>
      </trkpt>
      <trkpt lat="44.45153" lon="1.30909">
        <ele>248.132416</ele>
        <time>2012-09-02T10:17:18Z</time>
      </trkpt>
      <trkpt lat="44.45136" lon="1.30852">
        <ele>239.486755</ele>
        <time>2012-09-02T10:17:27Z</time>
      </trkpt>
      <trkpt lat="44.45132" lon="1.30813">
        <ele>235.40567</ele>
        <time>2012-09-02T10:17:33Z</time>
      </trkpt>
      <trkpt lat="44.45138" lon="1.30757">
        <ele>229.23793</ele>
        <time>2012-09-02T10:17:41Z</time>
      </trkpt>
      <trkpt lat="44.45152" lon="1.307">
        <ele>223.709534</ele>
        <time>2012-09-02T10:17:50Z</time>
      </trkpt>
      <trkpt lat="44.45151" lon="1.30662">
        <ele>218.658157</ele>
        <time>2012-09-02T10:17:55Z</time>
      </trkpt>
      <trkpt lat="44.45147" lon="1.3063">
        <ele>214.554855</ele>
        <time>2012-09-02T10:17:59Z</time>
      </trkpt>
      <trkpt lat="44.45138" lon="1.30586">
        <ele>210.342987</ele>
        <time>2012-09-02T10:18:04Z</time>
      </trkpt>
      <trkpt lat="44.45135" lon="1.3057">
        <ele>208.955124</ele>
        <time>2012-09-02T10:18:06Z</time>
      </trkpt>
      <trkpt lat="44.45129" lon="1.30547">
        <ele>206.453964</ele>
        <time>2012-09-02T10:18:09Z</time>
      </trkpt>
      <trkpt lat="44.45125" lon="1.30525">
        <ele>204.076019</ele>
        <time>2012-09-02T10:18:12Z</time>
      </trkpt>
      <trkpt lat="44.45116" lon="1.30495">
        <ele>198.213181</ele>
        <time>2012-09-02T10:18:17Z</time>
      </trkpt>
      <trkpt lat="44.45107" lon="1.30467">
        <ele>191.889648</ele>
        <time>2012-09-02T10:18:23Z</time>
      </trkpt>
      <trkpt lat="44.45089" lon="1.30446">
        <ele>187.072006</ele>
        <time>2012-09-02T10:18:28Z</time>
      </trkpt>
      <trkpt lat="44.45073" lon="1.3042">
        <ele>182.744995</ele>
        <time>2012-09-02T10:18:33Z</time>
      </trkpt>
      <trkpt lat="44.45063" lon="1.30362">
        <ele>169.114212</ele>
        <time>2012-09-02T10:18:42Z</time>
      </trkpt>
      <trkpt lat="44.45066" lon="1.30331">
        <ele>164.004227</ele>
        <time>2012-09-02T10:18:47Z</time>
      </trkpt>
      <trkpt lat="44.45071" lon="1.30297">
        <ele>159.096817</ele>
        <time>2012-09-02T10:18:52Z</time>
      </trkpt>
      <trkpt lat="44.45071" lon="1.30239">
        <ele>148.725845</ele>
        <time>2012-09-02T10:19:01Z</time>
      </trkpt>
      <trkpt lat="44.45073" lon="1.30217">
        <ele>146.7099</ele>
        <time>2012-09-02T10:19:06Z</time>
      </trkpt>
      <trkpt lat="44.45068" lon="1.30198">
        <ele>142.933899</ele>
        <time>2012-09-02T10:19:09Z</time>
      </trkpt>
      <trkpt lat="44.45065" lon="1.30174">
        <ele>139.266068</ele>
        <time>2012-09-02T10:19:13Z</time>
      </trkpt>
      <trkpt lat="44.45066" lon="1.30159">
        <ele>137.113083</ele>
        <time>2012-09-02T10:19:15Z</time>
      </trkpt>
      <trkpt lat="44.45062" lon="1.3011">
        <ele>128.745697</ele>
        <time>2012-09-02T10:19:24Z</time>
      </trkpt>
    </trkseg>
  </trk>
</gpx>